createdAt,value
2023-03-11T00:00:22.858Z,6.40
2023-03-11T00:02:52.282Z,6.60
2023-03-11T00:05:29.492Z,6.35
2023-03-11T00:07:57.382Z,5.50
2023-03-11T00:10:37.301Z,6.30
2023-03-11T00:13:06.303Z,6.22
2023-03-11T00:15:34.384Z,6.35
2023-03-11T00:18:02.280Z,6.63
2023-03-11T00:20:32.428Z,6.75
2023-03-11T00:23:00.607Z,6.80
2023-03-11T00:25:30.400Z,6.40
2023-03-11T00:27:58.698Z,6.60
2023-03-11T00:30:27.091Z,6.47
2023-03-11T00:32:56.318Z,6.60
2023-03-11T00:35:27.252Z,5.88
2023-03-11T00:37:57.391Z,6.72
2023-03-11T00:40:27.017Z,6.35
2023-03-11T00:42:54.448Z,8.55
2023-03-11T00:45:22.292Z,6.05
2023-03-11T00:47:50.774Z,6.13
2023-03-11T00:50:21.005Z,7.47
2023-03-11T00:52:49.407Z,5.55
2023-03-11T00:55:21.092Z,6.88
2023-03-11T00:57:51.160Z,6.25
2023-03-11T01:00:20.401Z,7.05
2023-03-11T01:02:47.706Z,6.30
2023-03-11T01:05:15.389Z,6.68
2023-03-11T01:07:45.785Z,6.70
2023-03-11T01:10:14.252Z,6.57
2023-03-11T01:12:42.304Z,6.57
2023-03-11T01:15:19.485Z,7.03
2023-03-11T01:17:46.933Z,6.45
2023-03-11T01:20:14.613Z,6.93
2023-03-11T01:22:43.052Z,7.50
2023-03-11T01:25:14.066Z,5.43
2023-03-11T01:27:41.519Z,6.05
2023-03-11T01:30:10.098Z,6.10
2023-03-11T01:32:37.945Z,5.43
2023-03-11T01:35:05.594Z,5.47
2023-03-11T01:37:32.891Z,5.88
2023-03-11T01:40:00.164Z,6.30
2023-03-11T01:42:27.462Z,7.78
2023-03-11T01:44:55.626Z,6.50
2023-03-11T01:47:39.894Z,7.63
2023-03-11T01:50:12.700Z,7.40
2023-03-11T01:52:42.535Z,6.97
2023-03-11T01:55:12.335Z,7.18
2023-03-11T01:57:42.477Z,7.68
2023-03-11T02:00:11.981Z,8.27
2023-03-11T02:02:48.363Z,7.53
2023-03-11T02:05:16.826Z,8.05
2023-03-11T02:07:44.256Z,7.65
2023-03-11T02:10:13.703Z,8.48
2023-03-11T02:12:41.633Z,8.07
2023-03-11T02:15:10.659Z,8.15
2023-03-11T02:17:39.972Z,8.25
2023-03-11T02:20:16.530Z,8.70
2023-03-11T02:22:44.599Z,9.23
2023-03-11T02:25:35.277Z,8.52
2023-03-11T02:28:05.656Z,9.30
2023-03-11T02:30:35.016Z,8.95
2023-03-11T02:33:04.176Z,9.05
2023-03-11T02:35:31.713Z,8.18
2023-03-11T02:37:59.078Z,9.07
2023-03-11T02:40:46.312Z,8.90
2023-03-11T02:43:15.976Z,10.73
2023-03-11T02:45:46.035Z,8.38
2023-03-11T02:48:14.765Z,10.15
2023-03-11T02:50:42.317Z,8.93
2023-03-11T02:53:10.150Z,9.70
2023-03-11T02:55:37.536Z,9.13
2023-03-11T02:58:04.825Z,9.23
2023-03-11T03:00:32.414Z,8.98
2023-03-11T03:03:00.590Z,9.43
2023-03-11T03:05:28.229Z,9.50
2023-03-11T03:07:55.556Z,9.60
2023-03-11T03:10:22.974Z,8.85
2023-03-11T03:12:50.463Z,9.70
2023-03-11T03:15:17.864Z,8.93
2023-03-11T03:17:46.288Z,10.27
2023-03-11T03:20:14.344Z,9.23
2023-03-11T03:22:42.208Z,8.18
2023-03-11T03:25:10.871Z,9.13
2023-03-11T03:27:38.280Z,9.20
2023-03-11T03:30:07.082Z,9.23
2023-03-11T03:32:34.981Z,9.77
2023-03-11T03:35:02.988Z,9.23
2023-03-11T03:37:34.529Z,9.65
2023-03-11T03:40:02.604Z,10.18
2023-03-11T03:42:30.164Z,9.18
2023-03-11T03:44:57.457Z,9.63
2023-03-11T03:47:24.778Z,9.40
2023-03-11T03:49:52.135Z,9.05
2023-03-11T03:52:19.423Z,9.07
2023-03-11T03:54:47.773Z,9.52
2023-03-11T03:57:15.132Z,8.85
2023-03-11T03:59:45.065Z,8.25
2023-03-11T04:02:12.581Z,8.95
2023-03-11T04:04:40.137Z,9.50
2023-03-11T04:07:07.520Z,8.65
2023-03-11T04:09:34.908Z,9.20
2023-03-11T04:12:02.184Z,9.32
2023-03-11T04:14:29.915Z,9.85
2023-03-11T04:16:58.465Z,9.57
2023-03-11T04:19:26.243Z,8.63
2023-03-11T04:21:53.587Z,10.20
2023-03-11T04:24:21.098Z,10.13
2023-03-11T04:26:48.379Z,9.57
2023-03-11T04:29:15.726Z,9.73
2023-03-11T04:31:42.991Z,10.32
2023-03-11T04:34:10.394Z,9.52
2023-03-11T04:36:37.674Z,9.48
2023-03-11T04:39:04.941Z,11.02
2023-03-11T04:41:32.198Z,9.88
2023-03-11T04:44:00.411Z,8.82
2023-03-11T04:46:28.061Z,9.90
2023-03-11T04:48:55.391Z,9.70
2023-03-11T04:51:23.059Z,8.38
2023-03-11T04:53:50.320Z,8.50
2023-03-11T04:56:17.561Z,9.98
2023-03-11T04:58:44.886Z,9.15
2023-03-11T05:01:12.179Z,9.18
2023-03-11T05:03:39.527Z,9.73
2023-03-11T05:06:06.965Z,9.55
2023-03-11T05:08:34.244Z,8.07
2023-03-11T05:11:01.548Z,9.77
2023-03-11T05:13:30.434Z,8.57
2023-03-11T05:15:57.725Z,8.90
2023-03-11T05:18:25.129Z,10.05
2023-03-11T05:20:53.494Z,8.93
2023-03-11T05:23:20.961Z,8.32
2023-03-11T05:25:49.332Z,8.45
2023-03-11T05:28:17.618Z,8.75
2023-03-11T05:30:44.903Z,8.45
2023-03-11T05:33:12.233Z,7.93
2023-03-11T05:38:24.087Z,9.63
2023-03-11T05:40:51.584Z,9.77
2023-03-11T05:43:18.935Z,8.50
2023-03-11T05:45:46.316Z,8.32
2023-03-11T05:48:14.026Z,8.18
2023-03-11T05:50:41.902Z,8.10
2023-03-11T05:53:09.198Z,8.35
2023-03-11T05:55:36.465Z,9.20
2023-03-11T05:58:03.814Z,8.07
2023-03-11T06:00:32.126Z,8.38
2023-03-11T06:02:59.388Z,8.05
2023-03-11T06:05:27.957Z,8.20
2023-03-11T06:07:57.735Z,8.63
2023-03-11T06:10:25.016Z,9.60
2023-03-11T06:12:52.254Z,8.60
2023-03-11T06:15:19.513Z,8.63
2023-03-11T06:17:47.213Z,8.77
2023-03-11T06:20:14.845Z,8.43
2023-03-11T06:22:42.171Z,9.00
2023-03-11T06:25:11.233Z,8.30
2023-03-11T06:27:38.567Z,8.77
2023-03-11T06:30:06.356Z,9.50
2023-03-11T06:32:35.468Z,9.00
2023-03-11T06:35:03.520Z,8.40
2023-03-11T06:37:31.201Z,8.80
2023-03-11T06:39:59.955Z,8.15
2023-03-11T06:42:27.224Z,7.93
2023-03-11T06:44:54.522Z,9.38
2023-03-11T06:47:21.814Z,8.93
2023-03-11T06:49:51.287Z,8.98
2023-03-11T06:52:19.002Z,8.85
2023-03-11T06:54:47.150Z,9.00
2023-03-11T06:57:14.450Z,9.48
2023-03-11T06:59:41.708Z,8.07
2023-03-11T07:02:13.711Z,7.65
2023-03-11T07:04:40.996Z,8.68
2023-03-11T07:07:08.376Z,10.05
2023-03-11T07:09:35.894Z,7.72
2023-03-11T07:12:06.665Z,8.00
2023-03-11T07:14:34.156Z,7.78
2023-03-11T07:17:01.928Z,8.15
2023-03-11T07:19:29.763Z,8.52
2023-03-11T07:21:57.189Z,8.30
2023-03-11T07:24:24.478Z,7.90
2023-03-11T07:26:51.793Z,7.82
2023-03-11T07:29:20.300Z,7.88
2023-03-11T07:31:47.695Z,7.80
2023-03-11T07:34:15.343Z,7.68
2023-03-11T07:36:44.458Z,8.05
2023-03-11T07:39:16.239Z,7.40
2023-03-11T07:41:44.051Z,8.15
2023-03-11T07:44:13.406Z,7.93
2023-03-11T07:46:40.956Z,7.63
2023-03-11T07:49:09.517Z,7.13
2023-03-11T07:51:38.481Z,9.00
2023-03-11T07:54:05.949Z,9.43
2023-03-11T07:56:35.119Z,9.57
2023-03-11T07:59:04.418Z,10.40
2023-03-11T08:01:36.878Z,10.05
2023-03-11T08:04:06.181Z,8.90
2023-03-11T08:06:36.427Z,8.38
2023-03-11T08:09:07.837Z,9.00
2023-03-11T08:11:37.572Z,9.00
2023-03-11T08:14:05.770Z,7.40
2023-03-11T08:16:34.118Z,9.27
2023-03-11T08:19:01.886Z,8.90
2023-03-11T08:21:32.160Z,8.77
2023-03-11T08:24:01.877Z,8.80
2023-03-11T08:26:30.092Z,8.05
2023-03-11T08:28:58.534Z,8.50
2023-03-11T08:31:28.962Z,8.25
2023-03-11T08:34:02.798Z,8.48
2023-03-11T08:36:31.707Z,8.50
2023-03-11T08:38:59.570Z,8.93
2023-03-11T08:41:27.941Z,9.27
2023-03-11T08:43:55.657Z,8.57
2023-03-11T08:46:32.006Z,7.82
2023-03-11T08:51:30.013Z,7.65
2023-03-11T08:53:57.527Z,6.93
2023-03-11T08:56:25.210Z,7.53
2023-03-11T08:58:52.787Z,6.97
2023-03-11T09:01:23.822Z,6.95
2023-03-11T09:03:52.309Z,6.20
2023-03-11T09:06:19.929Z,6.78
2023-03-11T09:08:48.463Z,6.38
2023-03-11T09:11:16.865Z,7.13
2023-03-11T09:13:44.353Z,6.68
2023-03-11T09:16:17.798Z,7.13
2023-03-11T09:18:45.497Z,6.22
2023-03-11T09:21:13.297Z,6.25
2023-03-11T09:23:43.974Z,7.05
2023-03-11T09:26:12.744Z,5.88
2023-03-11T09:28:42.509Z,5.85
2023-03-11T09:31:10.036Z,6.05
2023-03-11T09:33:39.986Z,4.72
2023-03-11T09:36:08.263Z,5.03
2023-03-11T09:38:35.755Z,5.30
2023-03-11T09:41:18.707Z,4.82
2023-03-11T09:44:01.412Z,4.90
2023-03-11T09:47:18.616Z,4.25
2023-03-11T09:50:07.100Z,3.70
2023-03-11T09:52:43.267Z,5.68
2023-03-11T09:56:09.055Z,4.82
2023-03-11T09:58:53.324Z,5.13
2023-03-11T10:01:26.483Z,5.05
2023-03-11T10:03:58.733Z,4.47
2023-03-11T10:06:30.530Z,3.80
2023-03-11T10:09:13.988Z,3.35
2023-03-11T10:12:08.507Z,5.25
2023-03-11T10:14:54.520Z,3.50
2023-03-11T10:17:50.592Z,3.20
2023-03-11T10:20:32.951Z,3.25
2023-03-11T10:23:00.331Z,3.10
2023-03-11T10:25:37.243Z,3.42
2023-03-11T10:28:13.761Z,2.42
2023-03-11T10:30:48.117Z,3.13
2023-03-11T10:33:30.491Z,2.83
2023-03-11T10:36:05.030Z,4.00
2023-03-11T10:38:42.304Z,3.08
2023-03-11T10:41:30.206Z,2.40
2023-03-11T10:44:07.561Z,2.65
2023-03-11T10:46:34.834Z,2.80
2023-03-11T10:49:02.397Z,3.33
2023-03-11T10:51:35.607Z,2.38
2023-03-11T10:54:04.262Z,2.53
2023-03-11T10:56:39.820Z,2.70
2023-03-11T10:59:24.936Z,2.60
2023-03-11T11:01:59.245Z,3.15
2023-03-11T11:04:38.591Z,2.80
2023-03-11T11:07:32.190Z,2.85
2023-03-11T11:10:17.980Z,2.60
2023-03-11T11:12:59.509Z,2.22
2023-03-11T11:15:29.172Z,2.30
2023-03-11T11:18:02.259Z,2.65
2023-03-11T11:20:31.262Z,2.47
2023-03-11T11:23:03.936Z,2.08
2023-03-11T11:25:41.058Z,2.50
2023-03-11T11:28:18.915Z,2.28
2023-03-11T11:31:25.798Z,2.08
2023-03-11T11:33:55.275Z,2.75
2023-03-11T11:36:29.579Z,2.38
2023-03-11T11:38:59.341Z,2.00
2023-03-11T11:41:29.341Z,2.53
2023-03-11T11:44:05.911Z,1.92
2023-03-11T11:46:41.758Z,2.20
2023-03-11T11:49:19.267Z,2.33
2023-03-11T11:52:15.625Z,2.17
2023-03-11T11:55:07.937Z,2.42
2023-03-11T11:57:35.268Z,2.33
2023-03-11T12:00:05.980Z,2.15
2023-03-11T12:02:53.655Z,2.00
2023-03-11T12:05:30.892Z,2.05
2023-03-11T12:08:24.991Z,3.20
2023-03-11T12:10:58.555Z,2.28
2023-03-11T12:13:51.002Z,2.58
2023-03-11T12:16:38.741Z,2.63
2023-03-11T12:19:12.294Z,2.53
2023-03-11T12:22:06.142Z,2.55
2023-03-11T12:25:01.412Z,2.63
2023-03-11T12:27:50.141Z,2.70
2023-03-11T12:30:27.212Z,2.80
2023-03-11T12:33:02.390Z,2.85
2023-03-11T12:35:33.519Z,3.15
2023-03-11T12:38:21.071Z,3.05
2023-03-11T12:40:50.762Z,3.33
2023-03-11T12:43:29.984Z,3.22
2023-03-11T12:46:01.062Z,2.10
2023-03-11T12:48:34.068Z,2.30
2023-03-11T12:51:02.555Z,2.47
2023-03-11T12:53:52.135Z,2.20
2023-03-11T12:56:28.673Z,1.65
2023-03-11T12:59:13.135Z,1.85
2023-03-11T13:02:21.004Z,1.75
2023-03-11T13:04:58.064Z,1.45
2023-03-11T13:07:49.504Z,2.10
2023-03-11T13:10:35.273Z,2.03
2023-03-11T13:13:25.599Z,2.30
2023-03-11T13:15:53.554Z,3.20
2023-03-11T13:18:32.945Z,2.67
2023-03-11T13:21:01.970Z,3.83
2023-03-11T13:23:38.113Z,2.30
2023-03-11T13:26:23.949Z,2.30
2023-03-11T13:28:59.782Z,1.85
2023-03-11T13:31:38.900Z,2.30
2023-03-11T13:34:47.149Z,2.25
2023-03-11T13:37:33.240Z,2.35
2023-03-11T13:40:32.348Z,2.27
2023-03-11T13:43:26.149Z,1.95
2023-03-11T13:46:04.245Z,1.98
2023-03-11T13:48:37.965Z,1.83
2023-03-11T13:51:13.611Z,1.80
2023-03-11T13:53:45.086Z,1.80
2023-03-11T13:56:29.019Z,2.05
2023-03-11T13:59:16.477Z,1.73
2023-03-11T14:01:52.725Z,1.77
2023-03-11T14:04:36.216Z,1.42
2023-03-11T14:07:31.756Z,1.65
2023-03-11T14:10:27.275Z,2.30
2023-03-11T14:13:17.309Z,1.50
2023-03-11T14:16:07.856Z,1.80
2023-03-11T14:18:38.478Z,1.30
2023-03-11T14:21:12.463Z,1.35
2023-03-11T14:23:48.710Z,2.13
2023-03-11T14:26:26.677Z,1.52
2023-03-11T14:28:59.659Z,1.95
2023-03-11T14:31:31.185Z,1.73
2023-03-11T14:34:04.640Z,1.80
2023-03-11T14:36:40.947Z,2.00
2023-03-11T14:39:30.940Z,1.73
2023-03-11T14:42:04.315Z,1.48
2023-03-11T14:44:40.480Z,1.83
2023-03-11T14:47:19.252Z,1.73
2023-03-11T14:49:49.061Z,2.25
2023-03-11T14:52:25.223Z,2.15
2023-03-11T14:54:54.425Z,1.75
2023-03-11T14:57:31.332Z,1.60
2023-03-11T14:59:59.262Z,1.95
2023-03-11T15:02:41.940Z,1.70
2023-03-11T15:05:26.953Z,2.13
2023-03-11T15:07:59.488Z,2.15
2023-03-11T15:10:26.818Z,2.60
2023-03-11T15:13:09.149Z,1.80
2023-03-11T15:15:36.690Z,1.85
2023-03-11T15:18:04.724Z,1.77
2023-03-11T15:20:35.504Z,1.95
2023-03-11T15:23:07.815Z,1.23
2023-03-11T15:25:38.530Z,1.45
2023-03-11T15:28:21.471Z,2.00
2023-03-11T15:30:49.062Z,1.90
2023-03-11T15:33:31.858Z,2.15
2023-03-11T15:35:59.197Z,1.98
2023-03-11T15:38:28.500Z,1.55
2023-03-11T15:41:01.257Z,1.80
2023-03-11T15:43:32.865Z,2.30
2023-03-11T15:46:02.891Z,1.65
2023-03-11T15:48:31.281Z,1.63
2023-03-11T15:50:59.754Z,2.28
2023-03-11T15:53:28.910Z,2.08
2023-03-11T15:56:06.874Z,1.77
2023-03-11T15:58:37.135Z,1.55
2023-03-11T16:01:04.579Z,1.95
2023-03-11T16:03:32.093Z,1.95
2023-03-11T16:05:59.673Z,1.83
2023-03-11T16:08:29.737Z,1.70
2023-03-11T16:10:58.990Z,2.08
2023-03-11T16:13:26.411Z,1.75
2023-03-11T16:15:53.802Z,2.20
2023-03-11T16:18:23.421Z,1.98
2023-03-11T16:20:53.097Z,2.20
2023-03-11T16:23:26.439Z,1.50
2023-03-11T16:25:58.956Z,1.80
2023-03-11T16:28:26.425Z,1.75
2023-03-11T16:30:53.829Z,1.42
2023-03-11T16:33:21.155Z,1.88
2023-03-11T16:35:48.697Z,1.95
2023-03-11T16:38:17.804Z,2.33
2023-03-11T16:40:45.731Z,1.73
2023-03-11T16:43:16.456Z,1.95
2023-03-11T16:45:43.697Z,1.83
2023-03-11T16:48:11.051Z,1.40
2023-03-11T16:50:38.443Z,1.88
2023-03-11T16:53:05.751Z,1.42
2023-03-11T16:55:33.734Z,2.13
2023-03-11T16:58:01.053Z,2.40
2023-03-11T17:00:28.603Z,1.70
2023-03-11T17:02:55.997Z,1.80
2023-03-11T17:05:23.327Z,2.00
2023-03-11T17:08:04.377Z,1.98
2023-03-11T17:10:38.237Z,2.03
2023-03-11T17:13:06.714Z,3.67
2023-03-11T17:15:35.368Z,2.40
2023-03-11T17:18:02.809Z,2.47
2023-03-11T17:20:30.187Z,1.80
2023-03-11T17:22:57.582Z,2.30
2023-03-11T17:25:24.862Z,2.20
2023-03-11T17:27:52.159Z,1.98
2023-03-11T17:30:35.706Z,1.83
2023-03-11T17:33:04.159Z,2.05
2023-03-11T17:35:31.814Z,2.42
2023-03-11T17:37:59.350Z,1.90
2023-03-11T17:40:27.175Z,2.17
2023-03-11T17:42:54.564Z,2.08
2023-03-11T17:45:21.879Z,2.20
2023-03-11T17:47:49.273Z,2.72
2023-03-11T17:50:17.524Z,3.10
2023-03-11T17:52:46.672Z,2.55
2023-03-11T17:55:14.114Z,1.98
2023-03-11T17:57:45.415Z,2.42
2023-03-11T18:00:14.950Z,2.22
2023-03-11T18:02:42.467Z,2.15
2023-03-11T18:05:09.944Z,2.58
2023-03-11T18:07:40.854Z,2.50
2023-03-11T18:10:09.163Z,2.70
2023-03-11T18:12:37.019Z,2.63
2023-03-11T18:15:08.267Z,2.58
2023-03-11T18:17:36.054Z,3.00
2023-03-11T18:20:04.723Z,2.83
2023-03-11T18:22:34.105Z,3.10
2023-03-11T18:25:02.589Z,3.25
2023-03-11T18:27:29.925Z,4.97
2023-03-11T18:29:57.177Z,3.65
2023-03-11T18:32:25.146Z,4.50
2023-03-11T18:34:53.628Z,4.05
2023-03-11T18:37:21.212Z,3.95
2023-03-11T18:39:48.568Z,5.70
2023-03-11T18:42:16.100Z,3.85
2023-03-11T18:44:43.448Z,4.18
2023-03-11T18:47:10.843Z,4.85
2023-03-11T18:49:38.230Z,3.58
2023-03-11T18:52:05.662Z,4.82
2023-03-11T18:54:32.983Z,5.05
2023-03-11T18:57:00.331Z,3.92
2023-03-11T18:59:27.973Z,4.57
2023-03-11T19:01:55.600Z,4.35
2023-03-11T19:04:23.111Z,3.85
2023-03-11T19:06:50.419Z,4.53
2023-03-11T19:09:20.966Z,4.80
2023-03-11T19:11:48.362Z,4.82
2023-03-11T19:14:15.764Z,4.45
2023-03-11T19:16:43.476Z,4.38
2023-03-11T19:19:12.078Z,4.43
2023-03-11T19:21:39.546Z,4.53
2023-03-11T19:24:09.518Z,5.30
2023-03-11T19:26:44.874Z,5.60
2023-03-11T19:29:15.459Z,6.00
2023-03-11T19:31:43.958Z,5.22
2023-03-11T19:34:11.571Z,5.35
2023-03-11T19:36:39.542Z,6.05
2023-03-11T19:39:07.647Z,5.30
2023-03-11T19:41:35.584Z,5.97
2023-03-11T19:44:04.354Z,6.07
2023-03-11T19:46:34.707Z,7.15
2023-03-11T19:49:03.523Z,7.25
2023-03-11T19:51:46.311Z,7.03
2023-03-11T19:54:16.767Z,7.07
2023-03-11T19:56:44.211Z,7.85
2023-03-11T19:59:11.873Z,8.80
2023-03-11T20:01:39.258Z,8.65
2023-03-11T20:04:06.657Z,10.77
2023-03-11T20:06:35.629Z,10.15
2023-03-11T20:09:02.973Z,13.00
2023-03-11T20:11:30.296Z,12.82
2023-03-11T20:13:58.003Z,13.48
2023-03-11T20:16:25.328Z,12.63
2023-03-11T20:19:00.161Z,11.10
2023-03-11T20:21:27.517Z,8.85
2023-03-11T20:23:55.831Z,8.90
2023-03-11T20:26:25.047Z,8.68
2023-03-11T20:28:56.153Z,8.77
2023-03-11T20:31:25.514Z,8.50
2023-03-11T20:33:59.155Z,7.60
2023-03-11T20:36:29.596Z,8.25
2023-03-11T20:38:57.396Z,8.07
2023-03-11T20:41:26.108Z,8.73
2023-03-11T20:43:57.532Z,8.90
2023-03-11T20:46:25.434Z,8.32
2023-03-11T20:48:52.927Z,9.13
2023-03-11T20:51:20.784Z,8.80
2023-03-11T20:57:08.824Z,10.05
2023-03-11T21:32:25.942Z,12.80
2023-03-11T21:34:58.066Z,12.68
2023-03-11T21:37:26.624Z,12.05
2023-03-11T22:37:25.378Z,14.88
2023-03-11T22:47:14.006Z,15.95
2023-03-11T22:57:20.808Z,16.48
2023-03-11T22:59:50.395Z,16.58
2023-03-11T23:03:08.409Z,15.38
2023-03-11T23:06:12.604Z,15.52
2023-03-11T23:08:39.935Z,16.60
2023-03-11T23:11:10.068Z,14.75
2023-03-11T23:14:06.886Z,15.75
2023-03-11T23:16:37.930Z,15.57
2023-03-11T23:30:03.718Z,16.30
2023-03-11T23:48:37.112Z,16.67
